createdAt,value
2019-01-25T00:01:38.114Z,93812.70
2019-01-25T00:04:07.863Z,93805.46
2019-01-25T00:06:37.462Z,93813.80
2019-01-25T00:09:08.993Z,93815.14
2019-01-25T00:11:38.800Z,93813.25
2019-01-25T00:14:08.556Z,93810.56
2019-01-25T00:16:38.216Z,93807.08
2019-01-25T00:19:07.977Z,93799.56
2019-01-25T00:21:37.566Z,93786.42
2019-01-25T00:24:07.256Z,93787.73
2019-01-25T00:26:37.873Z,93793.91
2019-01-25T00:29:07.591Z,93796.05
2019-01-25T00:31:37.297Z,93788.53
2019-01-25T00:34:06.828Z,93790.66
2019-01-25T00:36:36.523Z,93801.16
2019-01-25T00:39:08.226Z,93815.38
2019-01-25T00:41:38.094Z,93823.16
2019-01-25T00:44:07.724Z,93820.47
2019-01-25T00:46:37.423Z,93799.02
2019-01-25T00:49:07.042Z,93806.52
2019-01-25T00:51:36.738Z,93805.16
2019-01-25T00:54:06.757Z,93796.86
2019-01-25T00:56:36.464Z,93789.62
2019-01-25T00:59:06.102Z,93770.83
2019-01-25T01:01:35.927Z,93780.77
2019-01-25T01:04:05.743Z,93777.80
2019-01-25T01:06:35.315Z,93766.83
2019-01-25T01:09:07.067Z,93758.48
2019-01-25T01:11:36.766Z,93758.77
2019-01-25T01:14:06.411Z,93756.09
2019-01-25T01:16:36.086Z,93746.41
2019-01-25T01:19:05.768Z,93744.80
2019-01-25T01:21:35.520Z,93750.73
2019-01-25T01:24:05.255Z,93755.27
2019-01-25T01:26:34.938Z,93767.37
2019-01-25T01:29:04.549Z,93765.47
2019-01-25T01:31:34.257Z,93767.60
2019-01-25T01:34:03.969Z,93752.31
2019-01-25T01:36:33.592Z,93765.18
2019-01-25T01:39:04.325Z,93779.15
2019-01-25T01:41:34.119Z,93771.38
2019-01-25T01:44:03.859Z,93756.63
2019-01-25T01:46:33.553Z,93742.93
2019-01-25T01:49:03.287Z,93746.96
2019-01-25T01:51:32.962Z,93750.73
2019-01-25T01:54:02.610Z,93749.38
2019-01-25T01:56:32.287Z,93756.33
2019-01-25T01:59:01.987Z,93762.26
2019-01-25T02:01:31.811Z,93756.11
2019-01-25T02:04:01.381Z,93751.00
2019-01-25T02:06:30.917Z,93739.70
2019-01-25T02:09:00.634Z,93738.91
2019-01-25T02:11:30.282Z,93739.17
2019-01-25T02:13:59.958Z,93735.97
2019-01-25T02:16:29.655Z,93735.41
2019-01-25T02:18:59.422Z,93740.53
2019-01-25T02:21:29.004Z,93715.29
2019-01-25T02:23:58.705Z,93691.97
2019-01-25T02:26:28.416Z,93711.53
2019-01-25T02:28:58.043Z,93704.58
2019-01-25T02:31:27.728Z,93687.94
2019-01-25T02:33:57.438Z,93685.81
2019-01-25T02:36:27.142Z,93687.41
2019-01-25T02:38:56.864Z,93707.27
2019-01-25T02:41:26.677Z,93712.89
2019-01-25T02:43:56.298Z,93696.54
2019-01-25T02:46:25.998Z,93696.80
2019-01-25T02:48:56.039Z,93700.55
2019-01-25T02:51:25.756Z,93706.98
2019-01-25T02:53:55.438Z,93705.13
2019-01-25T02:56:25.150Z,93694.92
2019-01-25T02:58:54.776Z,93690.61
2019-01-25T03:01:24.497Z,93684.43
2019-01-25T03:03:54.168Z,93693.03
2019-01-25T03:06:23.889Z,93689.28
2019-01-25T03:08:53.593Z,93696.49
2019-01-25T03:11:23.337Z,93691.15
2019-01-25T03:13:53.015Z,93684.98
2019-01-25T03:16:22.659Z,93683.09
2019-01-25T03:18:52.468Z,93681.50
2019-01-25T03:21:22.216Z,93685.79
2019-01-25T03:23:51.862Z,93684.70
2019-01-25T03:26:21.595Z,93687.39
2019-01-25T03:28:51.422Z,93685.52
2019-01-25T03:31:21.004Z,93684.70
2019-01-25T03:33:50.759Z,93681.77
2019-01-25T03:36:20.419Z,93686.86
2019-01-25T03:38:50.121Z,93685.53
2019-01-25T03:41:19.838Z,93689.55
2019-01-25T03:43:49.458Z,93687.94
2019-01-25T03:46:19.162Z,93679.89
2019-01-25T03:48:48.796Z,93670.77
2019-01-25T03:51:18.473Z,93664.33
2019-01-25T03:53:48.217Z,93673.16
2019-01-25T03:56:17.920Z,93669.69
2019-01-25T03:58:47.628Z,93672.91
2019-01-25T04:01:17.324Z,93667.80
2019-01-25T04:03:47.028Z,93666.74
2019-01-25T04:06:16.818Z,93667.55
2019-01-25T04:08:46.600Z,93662.18
2019-01-25T04:11:16.261Z,93663.77
2019-01-25T04:13:45.970Z,93668.34
2019-01-25T04:16:15.641Z,93671.31
2019-01-25T04:18:45.297Z,93666.20
2019-01-25T04:21:14.950Z,93659.23
2019-01-25T04:23:44.620Z,93656.27
2019-01-25T04:26:14.255Z,93651.70
2019-01-25T04:28:43.932Z,93645.83
2019-01-25T04:31:13.648Z,93647.15
2019-01-25T04:33:43.359Z,93641.25
2019-01-25T04:36:13.178Z,93640.17
2019-01-25T04:38:42.913Z,93638.29
2019-01-25T04:41:12.596Z,93637.48
2019-01-25T04:43:42.231Z,93639.92
2019-01-25T04:46:11.908Z,93644.76
2019-01-25T04:48:41.526Z,93653.86
2019-01-25T04:51:11.237Z,93660.85
2019-01-25T04:53:40.852Z,93659.23
2019-01-25T04:56:10.545Z,93660.27
2019-01-25T04:58:40.266Z,93660.03
2019-01-25T05:01:12.699Z,93663.52
2019-01-25T05:03:42.539Z,93663.52
2019-01-25T05:06:13.697Z,93666.20
2019-01-25T05:08:43.405Z,93667.54
2019-01-25T05:11:19.978Z,93669.43
2019-01-25T05:13:48.899Z,93668.63
2019-01-25T05:16:19.184Z,93663.80
2019-01-25T05:18:49.052Z,93655.45
2019-01-25T05:21:36.746Z,93656.26
2019-01-25T05:24:12.062Z,93655.45
2019-01-25T05:26:41.830Z,93657.07
2019-01-25T05:29:11.682Z,93657.59
2019-01-25T05:31:41.488Z,93658.70
2019-01-25T05:34:11.559Z,93657.88
2019-01-25T05:36:41.171Z,93636.70
2019-01-25T05:39:11.061Z,93632.93
2019-01-25T05:41:40.678Z,93637.77
2019-01-25T05:44:10.456Z,93636.42
2019-01-25T05:46:40.131Z,93635.33
2019-01-25T05:49:09.822Z,93653.88
2019-01-25T05:51:39.615Z,93658.05
2019-01-25T05:54:09.425Z,93659.76
2019-01-25T05:56:43.755Z,93666.06
2019-01-25T05:59:13.463Z,93669.69
2019-01-25T06:01:46.459Z,93672.48
2019-01-25T06:04:16.667Z,93672.50
2019-01-25T06:06:46.388Z,93675.95
2019-01-25T06:09:21.229Z,93664.20
2019-01-25T06:11:50.921Z,93657.98
2019-01-25T06:14:20.637Z,93660.20
2019-01-25T06:16:50.353Z,93660.80
2019-01-25T06:19:20.092Z,93650.64
2019-01-25T06:21:50.783Z,93645.55
2019-01-25T06:24:20.499Z,93651.75
2019-01-25T06:26:50.266Z,93657.59
2019-01-25T06:29:19.942Z,93654.42
2019-01-25T06:31:49.625Z,93654.73
2019-01-25T06:34:19.374Z,93655.80
2019-01-25T06:36:49.059Z,93659.31
2019-01-25T06:39:18.793Z,93649.94
2019-01-25T06:41:48.469Z,93649.44
2019-01-25T06:44:18.208Z,93650.25
2019-01-25T06:46:47.935Z,93658.30
2019-01-25T06:49:17.608Z,93659.92
2019-01-25T06:51:47.476Z,93651.34
2019-01-25T06:54:17.184Z,93651.87
2019-01-25T06:56:46.952Z,93656.70
2019-01-25T06:59:19.539Z,93656.19
2019-01-25T07:02:10.468Z,93651.34
2019-01-25T07:04:40.156Z,93654.28
2019-01-25T07:07:19.168Z,93656.19
2019-01-25T07:09:48.999Z,93653.23
2019-01-25T07:12:18.616Z,93655.92
2019-01-25T07:14:48.418Z,93653.50
2019-01-25T07:17:19.676Z,93653.23
2019-01-25T07:19:49.295Z,93642.52
2019-01-25T07:22:19.023Z,93638.25
2019-01-25T07:24:48.618Z,93648.17
2019-01-25T07:27:18.449Z,93646.48
2019-01-25T07:29:48.013Z,93645.17
2019-01-25T07:32:17.734Z,93652.17
2019-01-25T07:34:47.457Z,93647.11
2019-01-25T07:37:17.145Z,93643.34
2019-01-25T07:39:47.009Z,93639.85
2019-01-25T07:42:16.758Z,93643.34
2019-01-25T07:44:46.585Z,93641.99
2019-01-25T07:47:16.294Z,93633.97
2019-01-25T07:49:45.997Z,93634.22
2019-01-25T07:52:15.731Z,93626.75
2019-01-25T07:54:45.552Z,93624.60
2019-01-25T07:57:15.345Z,93629.97
2019-01-25T07:59:45.050Z,93631.58
2019-01-25T08:02:14.763Z,93641.77
2019-01-25T08:04:44.471Z,93644.20
2019-01-25T08:07:14.205Z,93645.81
2019-01-25T08:09:43.886Z,93644.18
2019-01-25T08:12:13.610Z,93641.78
2019-01-25T08:14:43.321Z,93646.05
2019-01-25T08:17:13.017Z,93657.86
2019-01-25T08:19:42.728Z,93655.97
2019-01-25T08:22:12.362Z,93651.41
2019-01-25T08:24:42.060Z,93652.25
2019-01-25T08:27:11.761Z,93648.73
2019-01-25T08:29:41.509Z,93658.13
2019-01-25T08:32:11.190Z,93658.94
2019-01-25T08:34:40.819Z,93649.55
2019-01-25T08:37:10.619Z,93653.05
2019-01-25T08:39:40.324Z,93647.14
2019-01-25T08:42:15.410Z,93645.53
2019-01-25T08:44:41.417Z,93645.80
2019-01-25T08:47:11.091Z,93650.91
2019-01-25T08:49:40.768Z,93648.49
2019-01-25T08:52:10.805Z,93656.27
2019-01-25T08:54:40.462Z,93656.28
2019-01-25T08:57:10.181Z,93653.60
2019-01-25T08:59:39.786Z,93649.03
2019-01-25T09:02:09.455Z,93646.63
2019-01-25T09:04:39.180Z,93649.84
2019-01-25T09:07:08.899Z,93637.23
2019-01-25T09:09:38.706Z,93635.09
2019-01-25T09:12:08.308Z,93637.77
2019-01-25T09:14:38.030Z,93632.65
2019-01-25T09:17:07.650Z,93632.11
2019-01-25T09:19:37.339Z,93626.75
2019-01-25T09:22:06.960Z,93621.66
2019-01-25T09:24:38.140Z,93624.61
2019-01-25T09:27:08.353Z,93609.31
2019-01-25T09:29:38.424Z,93592.95
2019-01-25T09:32:11.394Z,93602.61
2019-01-25T09:34:41.621Z,93598.06
2019-01-25T09:37:11.595Z,93597.78
2019-01-25T09:39:43.521Z,93599.92
2019-01-25T09:42:15.984Z,93596.70
2019-01-25T09:44:47.504Z,93597.27
2019-01-25T09:47:18.878Z,93596.18
2019-01-25T09:49:49.371Z,93590.02
2019-01-25T09:52:21.414Z,93587.05
2019-01-25T09:54:54.451Z,93595.62
2019-01-25T09:57:25.298Z,93592.69
2019-01-25T09:59:57.289Z,93581.41
2019-01-25T10:02:30.918Z,93569.89
2019-01-25T10:05:01.918Z,93567.45
2019-01-25T10:07:33.595Z,93572.29
2019-01-25T10:10:05.754Z,93576.86
2019-01-25T10:12:43.217Z,93571.50
2019-01-25T10:15:12.890Z,93555.67
2019-01-25T10:17:51.969Z,93565.31
2019-01-25T10:20:22.875Z,93558.09
2019-01-25T10:22:56.390Z,93554.34
2019-01-25T10:25:28.604Z,93548.43
2019-01-25T10:27:59.908Z,93543.07
2019-01-25T10:30:32.757Z,93541.18
2019-01-25T10:33:02.626Z,93547.09
2019-01-25T10:35:34.015Z,93542.80
2019-01-25T10:38:04.820Z,93541.44
2019-01-25T10:40:34.743Z,93539.56
2019-01-25T10:43:04.569Z,93523.75
2019-01-25T10:45:35.976Z,93524.29
2019-01-25T10:48:06.087Z,93518.66
2019-01-25T10:50:35.856Z,93519.45
2019-01-25T10:53:06.194Z,93510.60
2019-01-25T10:55:36.092Z,93510.61
2019-01-25T10:58:06.481Z,93513.29
2019-01-25T11:00:36.519Z,93509.27
2019-01-25T11:03:09.396Z,93501.22
2019-01-25T11:05:40.899Z,93497.75
2019-01-25T11:08:10.946Z,93487.28
2019-01-25T11:10:41.111Z,93485.13
2019-01-25T11:13:11.467Z,93492.13
2019-01-25T11:15:41.692Z,93491.30
2019-01-25T11:18:11.574Z,93485.42
2019-01-25T11:20:41.386Z,93480.05
2019-01-25T11:23:11.331Z,93479.78
2019-01-25T11:25:41.825Z,93479.52
2019-01-25T11:28:11.803Z,93471.48
2019-01-25T11:30:43.266Z,93467.45
2019-01-25T11:33:12.941Z,93470.94
2019-01-25T11:35:42.629Z,93476.28
2019-01-25T11:38:12.362Z,93466.12
2019-01-25T11:40:43.756Z,93459.93
2019-01-25T11:43:13.409Z,93460.22
2019-01-25T11:45:43.672Z,93462.07
2019-01-25T11:48:16.318Z,93459.94
2019-01-25T11:50:45.908Z,93455.91
2019-01-25T11:53:15.749Z,93456.70
2019-01-25T11:55:45.472Z,93449.21
2019-01-25T11:58:15.052Z,93438.48
2019-01-25T12:00:45.862Z,93438.48
2019-01-25T12:03:15.599Z,93440.08
2019-01-25T12:05:45.240Z,93437.69
2019-01-25T12:08:14.755Z,93434.45
2019-01-25T12:10:44.401Z,93440.08
2019-01-25T12:13:16.292Z,93448.67
2019-01-25T12:15:45.563Z,93445.19
2019-01-25T12:18:15.307Z,93438.20
2019-01-25T12:20:44.985Z,93441.96
2019-01-25T12:23:14.691Z,93437.69
2019-01-25T12:25:44.409Z,93431.48
2019-01-25T12:28:14.355Z,93432.83
2019-01-25T12:30:44.046Z,93428.27
2019-01-25T12:33:13.686Z,93428.01
2019-01-25T12:35:44.826Z,93426.38
2019-01-25T12:38:14.630Z,93417.83
2019-01-25T12:40:44.345Z,93408.44
2019-01-25T12:43:14.026Z,93409.23
2019-01-25T12:45:43.753Z,93407.09
2019-01-25T12:48:13.449Z,93408.98
2019-01-25T12:51:05.285Z,93410.83
2019-01-25T12:53:35.437Z,93410.86
2019-01-25T12:56:05.120Z,93407.89
2019-01-25T12:58:34.923Z,93394.23
2019-01-25T13:01:06.116Z,93389.66
2019-01-25T13:03:36.116Z,93377.59
2019-01-25T13:06:06.124Z,93381.88
2019-01-25T13:08:35.747Z,93387.52
2019-01-25T13:11:05.524Z,93385.89
2019-01-25T13:13:35.142Z,93387.78
2019-01-25T13:16:04.851Z,93384.05
2019-01-25T13:18:34.551Z,93393.40
2019-01-25T13:21:04.218Z,93397.96
2019-01-25T13:23:33.884Z,93401.98
2019-01-25T13:26:03.638Z,93398.25
2019-01-25T13:28:33.397Z,93396.38
2019-01-25T13:31:03.179Z,93396.91
2019-01-25T13:33:32.934Z,93399.30
2019-01-25T13:36:02.557Z,93397.71
2019-01-25T13:38:32.418Z,93392.09
2019-01-25T13:41:02.103Z,93391.55
2019-01-25T13:43:38.839Z,93376.80
2019-01-25T13:46:03.252Z,93378.13
2019-01-25T13:48:33.075Z,93374.91
2019-01-25T13:51:02.785Z,93377.05
2019-01-25T13:53:32.451Z,93377.85
2019-01-25T13:56:02.208Z,93373.03
2019-01-25T13:58:32.091Z,93371.98
2019-01-25T14:01:01.843Z,93370.89
2019-01-25T14:03:31.552Z,93362.05
2019-01-25T14:06:01.209Z,93369.02
2019-01-25T14:08:30.852Z,93363.39
2019-01-25T14:11:00.533Z,93369.55
2019-01-25T14:13:34.171Z,93364.74
2019-01-25T14:16:01.599Z,93358.83
2019-01-25T14:18:31.343Z,93353.75
2019-01-25T14:21:01.011Z,93358.83
2019-01-25T14:23:30.801Z,93362.31
2019-01-25T14:26:00.546Z,93360.97
2019-01-25T14:28:30.253Z,93357.48
2019-01-25T14:30:59.973Z,93348.10
2019-01-25T14:33:29.781Z,93346.52
2019-01-25T14:35:59.417Z,93348.66
2019-01-25T14:38:29.009Z,93346.80
2019-01-25T14:40:58.620Z,93337.67
2019-01-25T14:43:28.332Z,93333.36
2019-01-25T14:45:58.029Z,93334.19
2019-01-25T14:48:27.701Z,93329.38
2019-01-25T14:50:57.447Z,93333.41
2019-01-25T14:53:27.082Z,93326.16
2019-01-25T14:55:56.800Z,93326.41
2019-01-25T14:58:26.498Z,93321.88
2019-01-25T15:00:57.680Z,93320.25
2019-01-25T15:03:27.589Z,93322.38
2019-01-25T15:05:57.286Z,93309.78
2019-01-25T15:08:26.986Z,93314.88
2019-01-25T15:10:56.711Z,93306.83
2019-01-25T15:13:26.405Z,93306.04
2019-01-25T15:15:56.092Z,93303.62
2019-01-25T15:18:25.789Z,93303.08
2019-01-25T15:20:55.566Z,93298.50
2019-01-25T15:23:25.312Z,93301.22
2019-01-25T15:25:55.025Z,93296.11
2019-01-25T15:28:24.753Z,93292.34
2019-01-25T15:30:54.481Z,93290.50
2019-01-25T15:33:24.271Z,93281.67
2019-01-25T15:35:53.992Z,93286.49
2019-01-25T15:38:23.797Z,93286.74
2019-01-25T15:40:53.537Z,93289.43
2019-01-25T15:43:23.218Z,93288.63
2019-01-25T15:45:52.957Z,93284.61
2019-01-25T15:48:22.715Z,93284.34
2019-01-25T15:50:52.375Z,93282.18
2019-01-25T15:53:22.057Z,93286.23
2019-01-25T15:55:51.682Z,93286.23
2019-01-25T15:58:21.419Z,93275.52
2019-01-25T16:00:51.082Z,93277.91
2019-01-25T16:03:20.798Z,93279.78
2019-01-25T16:05:50.514Z,93277.66
2019-01-25T16:08:20.125Z,93289.13
2019-01-25T16:10:49.934Z,93289.12
2019-01-25T16:13:19.670Z,93289.13
2019-01-25T16:15:49.361Z,93292.09
2019-01-25T16:18:18.982Z,93293.98
2019-01-25T16:20:48.818Z,93299.34
2019-01-25T16:23:18.393Z,93295.88
2019-01-25T16:25:48.092Z,93304.17
2019-01-25T16:28:17.853Z,93297.21
2019-01-25T16:30:47.614Z,93299.09
2019-01-25T16:33:17.322Z,93306.59
2019-01-25T16:35:46.981Z,93303.91
2019-01-25T16:38:16.686Z,93309.27
2019-01-25T16:40:46.264Z,93310.88
2019-01-25T16:43:15.962Z,93319.20
2019-01-25T16:45:46.017Z,93321.34
2019-01-25T16:48:15.789Z,93341.19
2019-01-25T16:50:45.589Z,93331.77
2019-01-25T16:53:15.599Z,93341.98
2019-01-25T16:55:45.162Z,93337.97
2019-01-25T16:58:14.871Z,93337.97
2019-01-25T17:00:46.463Z,93341.70
2019-01-25T17:03:16.219Z,93342.78
2019-01-25T17:05:45.865Z,93352.42
2019-01-25T17:08:15.528Z,93347.06
2019-01-25T17:10:45.166Z,93337.96
2019-01-25T17:13:14.844Z,93324.52
2019-01-25T17:15:44.599Z,93319.20
2019-01-25T17:18:14.197Z,93324.02
2019-01-25T17:20:43.769Z,93323.48
2019-01-25T17:23:13.456Z,93326.70
2019-01-25T17:25:43.199Z,93318.41
2019-01-25T17:28:13.966Z,93322.97
2019-01-25T17:30:43.668Z,93315.19
2019-01-25T17:33:13.262Z,93311.97
2019-01-25T17:35:42.768Z,93320.80
2019-01-25T17:38:12.477Z,93319.47
2019-01-25T17:40:46.884Z,93315.72
2019-01-25T17:43:16.007Z,93331.52
2019-01-25T17:45:45.710Z,93338.52
2019-01-25T17:48:15.401Z,93341.16
2019-01-25T17:50:45.129Z,93335.55
2019-01-25T17:53:14.744Z,93333.40
2019-01-25T17:55:44.653Z,93325.90
2019-01-25T17:58:14.274Z,93336.08
2019-01-25T18:00:55.812Z,93334.74
2019-01-25T18:03:25.594Z,93341.45
2019-01-25T18:05:55.213Z,93332.86
2019-01-25T18:08:24.873Z,93332.06
2019-01-25T18:10:54.687Z,93325.36
2019-01-25T18:13:24.449Z,93325.07
2019-01-25T18:15:54.215Z,93328.30
2019-01-25T18:18:24.028Z,93324.83
2019-01-25T18:20:53.742Z,93330.18
2019-01-25T18:23:23.716Z,93327.20
2019-01-25T18:26:08.721Z,93314.88
2019-01-25T18:28:51.142Z,93321.33
2019-01-25T18:31:22.541Z,93322.68
2019-01-25T18:33:52.296Z,93322.69
2019-01-25T18:36:21.999Z,93322.13
2019-01-25T18:38:51.749Z,93324.27
2019-01-25T18:41:21.424Z,93319.95
2019-01-25T18:43:51.187Z,93314.88
2019-01-25T18:46:20.873Z,93319.16
2019-01-25T18:48:50.690Z,93310.30
2019-01-25T18:51:20.377Z,93305.74
2019-01-25T18:53:50.087Z,93305.20
2019-01-25T18:56:21.603Z,93302.26
2019-01-25T18:58:51.349Z,93313.23
2019-01-25T19:01:20.985Z,93304.66
2019-01-25T19:03:50.765Z,93301.46
2019-01-25T19:06:20.539Z,93307.63
2019-01-25T19:08:50.321Z,93315.13
2019-01-25T19:11:20.111Z,93314.83
2019-01-25T19:13:49.749Z,93315.66
2019-01-25T19:16:19.430Z,93315.39
2019-01-25T19:18:49.082Z,93310.02
2019-01-25T19:21:18.660Z,93307.34
2019-01-25T19:23:48.471Z,93310.02
2019-01-25T19:26:19.559Z,93308.95
2019-01-25T19:28:49.588Z,93308.68
2019-01-25T19:31:19.234Z,93310.31
2019-01-25T19:33:48.883Z,93308.97
2019-01-25T19:36:18.557Z,93315.14
2019-01-25T19:38:48.267Z,93317.02
2019-01-25T19:41:18.113Z,93323.98
2019-01-25T19:43:47.817Z,93320.50
2019-01-25T19:46:17.620Z,93319.95
2019-01-25T19:48:47.313Z,93314.34
2019-01-25T19:51:17.008Z,93316.22
2019-01-25T19:53:46.736Z,93319.41
2019-01-25T19:56:16.418Z,93326.95
2019-01-25T19:58:46.257Z,93327.23
2019-01-25T20:01:16.030Z,93329.09
2019-01-25T20:03:45.812Z,93333.41
2019-01-25T20:06:15.508Z,93334.45
2019-01-25T20:08:45.240Z,93338.77
2019-01-25T20:11:15.020Z,93339.02
2019-01-25T20:13:44.745Z,93344.67
2019-01-25T20:16:17.065Z,93338.52
2019-01-25T20:18:47.061Z,93337.14
2019-01-25T20:21:16.714Z,93335.00
2019-01-25T20:23:46.434Z,93336.08
2019-01-25T20:26:16.069Z,93338.47
2019-01-25T20:28:45.756Z,93331.52
2019-01-25T20:31:15.418Z,93320.79
2019-01-25T20:33:45.935Z,93330.97
2019-01-25T20:36:15.949Z,93338.47
2019-01-25T20:38:45.539Z,93341.95
2019-01-25T20:41:15.441Z,93334.99
2019-01-25T20:43:45.195Z,93345.71
2019-01-25T20:46:14.858Z,93341.95
2019-01-25T20:48:44.687Z,93324.52
2019-01-25T20:51:14.297Z,93343.28
2019-01-25T20:53:44.046Z,93351.88
2019-01-25T20:56:13.621Z,93334.16
2019-01-25T20:58:43.317Z,93336.03
2019-01-25T21:01:13.049Z,93352.92
2019-01-25T21:03:42.736Z,93353.20
2019-01-25T21:06:12.355Z,93352.13
2019-01-25T21:08:42.167Z,93352.92
2019-01-25T21:11:11.893Z,93348.09
2019-01-25T21:13:41.708Z,93363.64
2019-01-25T21:16:11.470Z,93359.91
2019-01-25T21:18:41.202Z,93360.41
2019-01-25T21:21:10.905Z,93356.69
2019-01-25T21:23:40.763Z,93363.40
2019-01-25T21:26:10.538Z,93371.44
2019-01-25T21:28:40.272Z,93370.91
2019-01-25T21:31:10.081Z,93362.60
2019-01-25T21:33:39.779Z,93367.97
2019-01-25T21:36:09.490Z,93368.51
2019-01-25T21:38:39.263Z,93361.52
2019-01-25T21:41:09.006Z,93359.38
2019-01-25T21:43:38.627Z,93363.40
2019-01-25T21:46:08.228Z,93364.48
2019-01-25T21:48:37.857Z,93366.62
2019-01-25T21:51:07.798Z,93361.01
2019-01-25T21:53:37.391Z,93371.19
2019-01-25T21:56:07.072Z,93375.21
2019-01-25T21:58:36.783Z,93377.09
2019-01-25T22:01:06.630Z,93384.05
2019-01-25T22:03:36.317Z,93384.59
2019-01-25T22:06:06.266Z,93392.64
2019-01-25T22:08:36.014Z,93389.16
2019-01-25T22:11:05.948Z,93389.16
2019-01-25T22:13:35.704Z,93387.28
2019-01-25T22:16:06.987Z,93385.14
2019-01-25T22:18:36.758Z,93388.36
2019-01-25T22:21:06.442Z,93387.28
2019-01-25T22:23:36.075Z,93398.00
2019-01-25T22:26:05.855Z,93398.80
2019-01-25T22:28:35.712Z,93394.78
2019-01-25T22:31:05.383Z,93402.56
2019-01-25T22:33:35.099Z,93392.64
2019-01-25T22:36:04.799Z,93393.98
2019-01-25T22:38:34.514Z,93386.48
2019-01-25T22:41:04.137Z,93382.72
2019-01-25T22:43:33.831Z,93388.62
2019-01-25T22:46:03.677Z,93392.38
2019-01-25T22:48:33.607Z,93398.80
2019-01-25T22:51:03.173Z,93402.56
2019-01-25T22:53:33.012Z,93393.44
2019-01-25T22:56:02.609Z,93386.98
2019-01-25T22:58:32.305Z,93397.45
2019-01-25T23:01:22.905Z,93393.44
2019-01-25T23:04:29.510Z,93402.53
2019-01-25T23:07:19.975Z,93408.19
2019-01-25T23:09:54.537Z,93411.66
2019-01-25T23:12:24.126Z,93399.05
2019-01-25T23:14:53.826Z,93395.58
2019-01-25T23:17:23.454Z,93388.33
2019-01-25T23:19:53.054Z,93391.30
2019-01-25T23:22:22.857Z,93409.52
2019-01-25T23:24:52.475Z,93408.44
2019-01-25T23:27:22.200Z,93406.30
2019-01-25T23:29:51.790Z,93411.66
2019-01-25T23:32:21.483Z,93411.41
2019-01-25T23:34:51.208Z,93415.97
2019-01-25T23:37:20.903Z,93415.69
2019-01-25T23:39:50.646Z,93425.61
2019-01-25T23:42:20.258Z,93432.31
2019-01-25T23:44:49.933Z,93436.88
2019-01-25T23:47:19.571Z,93430.72
2019-01-25T23:49:52.307Z,93428.83
2019-01-25T23:52:22.070Z,93430.45
2019-01-25T23:54:51.748Z,93443.58
2019-01-25T23:57:21.484Z,93446.80
2019-01-25T23:59:51.185Z,93462.61
